Time;durP1;ratioP1;P1;durP2;ratioP2;P2;SDS_P1;SDS_P2;PMS_P1;PMS_P2;Temp;Humidity;BMP_temperature;BMP_pressure;BME280_temperature;BME280_humidity;BME280_pressure;Samples;Min_cycle;Max_cycle;Signal;HPM_P1;HPM_P2
2024/01/09 00:02:19;;;;;;;;;0.80;0.80;;;;;-4.34;69.86;101565.44;5097913;28;9572;-58
2024/01/09 00:04:47;;;;;;;;;2.20;0.80;;;;;-4.36;69.78;101557.63;5098047;28;8864;-57
2024/01/09 00:07:15;;;;;;;;;3.00;3.00;;;;;-4.35;69.81;101553.31;5097647;28;8822;-58
2024/01/09 00:09:43;;;;;;;;;0.00;0.00;;;;;-4.36;69.86;101552.41;5089479;28;8818;-57
2024/01/09 00:12:11;;;;;;;;;3.00;1.80;;;;;-4.36;70.00;101551.53;5097469;28;8810;-57
2024/01/09 00:14:38;;;;;;;;;0.80;0.80;;;;;-4.38;69.61;101558.47;5097891;28;8846;-56
2024/01/09 00:17:06;;;;;;;;;2.20;2.20;;;;;-4.40;69.99;101555.84;5098442;28;8899;-57
2024/01/09 00:19:34;;;;;;;;;0.00;0.00;;;;;-4.40;69.74;101549.78;5095785;28;8940;-57
2024/01/09 00:22:03;;;;;;;;;1.40;1.40;;;;;-4.41;69.70;101548.91;5097599;28;8907;-59
2024/01/09 00:24:31;;;;;;;;;1.40;1.40;;;;;-4.41;70.12;101542.84;5097179;28;8876;-56
2024/01/09 00:26:58;;;;;;;;;0.00;0.00;;;;;-4.41;70.11;101543.72;5097582;28;8838;-56
2024/01/09 00:29:26;;;;;;;;;0.00;0.00;;;;;-4.43;69.75;101534.19;5095485;28;8818;-59
2024/01/09 00:31:54;;;;;;;;;1.40;1.00;;;;;-4.44;69.54;101533.31;5097948;28;8822;-57
2024/01/09 00:34:22;;;;;;;;;0.00;0.00;;;;;-4.46;69.83;101535.03;5097118;28;8851;-57
2024/01/09 00:36:50;;;;;;;;;1.00;1.00;;;;;-4.47;69.86;101532.41;5097496;28;8834;-56
2024/01/09 00:39:18;;;;;;;;;0.00;0.00;;;;;-4.48;69.94;101531.53;5096836;28;8838;-57
2024/01/09 00:41:46;;;;;;;;;1.80;1.80;;;;;-4.47;69.73;101533.31;5096694;28;8956;-57
2024/01/09 00:44:13;;;;;;;;;1.00;1.00;;;;;-4.49;69.98;101528.94;5097755;28;8845;-57
2024/01/09 00:46:42;;;;;;;;;0.40;0.40;;;;;-4.50;69.64;101530.66;5097144;28;8838;-57
2024/01/09 00:49:09;;;;;;;;;0.80;0.80;;;;;-4.54;69.67;101531.53;5096235;28;9007;-56
2024/01/09 00:51:38;;;;;;;;;1.40;1.40;;;;;-4.53;70.15;101525.47;5097967;28;8918;-57
2024/01/09 00:54:05;;;;;;;;;0.60;0.60;;;;;-4.49;70.07;101524.59;5097861;28;8916;-57
2024/01/09 00:56:33;;;;;;;;;1.80;1.00;;;;;-4.49;69.80;101524.59;5097992;28;8844;-59
2024/01/09 00:59:01;;;;;;;;;0.60;0.60;;;;;-4.48;69.76;101515.94;5097086;28;8826;-59
2024/01/09 01:01:29;;;;;;;;;0.00;0.00;;;;;-4.52;69.50;101524.59;5097671;28;8842;-59
2024/01/09 01:03:57;;;;;;;;;1.00;0.00;;;;;-4.56;69.91;101520.22;5097268;28;8806;-56
2024/01/09 01:06:25;;;;;;;;;0.00;0.00;;;;;-4.58;69.89;101527.16;5096598;28;8810;-57
2024/01/09 01:08:53;;;;;;;;;3.00;3.00;;;;;-4.60;69.87;101523.69;5095682;28;8818;-57
2024/01/09 01:11:21;;;;;;;;;0.60;0.00;;;;;-4.67;69.75;101518.41;5096312;28;8853;-59
2024/01/09 01:13:49;;;;;;;;;0.20;0.20;;;;;-4.71;70.15;101517.53;5096658;28;8976;-57
2024/01/09 01:16:16;;;;;;;;;0.00;0.00;;;;;-4.70;70.22;101523.59;5097207;28;8810;-58
2024/01/09 01:18:44;;;;;;;;;1.00;1.00;;;;;-4.68;70.08;101532.28;5095499;28;8791;-57
2024/01/09 01:21:12;;;;;;;;;1.00;1.00;;;;;-4.67;70.16;101524.50;5096708;28;8834;-57
2024/01/09 01:23:42;;;;;;;;;2.20;2.20;;;;;-4.67;69.43;101518.41;5097269;28;9505;-59
2024/01/09 01:26:10;;;;;;;;;0.40;0.00;;;;;-4.66;69.62;101525.34;5094299;28;8840;-60
2024/01/09 01:28:37;;;;;;;;;1.00;1.00;;;;;-4.66;69.50;101526.22;5085859;28;8802;-57
2024/01/09 01:31:05;;;;;;;;;1.80;1.00;;;;;-4.65;69.84;101532.31;5096599;28;8841;-58
2024/01/09 01:33:33;;;;;;;;;2.20;2.20;;;;;-4.64;69.79;101532.31;5096955;28;8827;-58
2024/01/09 01:36:01;;;;;;;;;3.00;3.00;;;;;-4.64;69.94;101529.69;5095495;28;8952;-57
2024/01/09 01:38:29;;;;;;;;;0.40;0.40;;;;;-4.64;69.90;101537.50;5093170;28;8961;-57
2024/01/09 01:40:57;;;;;;;;;0.20;0.20;;;;;-4.64;69.11;101539.25;5097096;28;8818;-59
2024/01/09 01:43:25;;;;;;;;;1.00;0.60;;;;;-4.67;70.43;101534.88;5096747;28;8980;-57
2024/01/09 01:45:52;;;;;;;;;0.00;0.00;;;;;-4.68;69.65;101538.34;5096511;28;8817;-58
2024/01/09 01:48:20;;;;;;;;;0.20;0.20;;;;;-4.70;69.91;101539.19;5096572;28;9518;-59
2024/01/09 01:50:49;;;;;;;;;1.00;0.20;;;;;-4.73;69.61;101540.03;5095867;28;8822;-59
2024/01/09 01:53:17;;;;;;;;;3.00;1.40;;;;;-4.72;69.78;101540.91;5096028;28;8829;-57
2024/01/09 01:55:44;;;;;;;;;0.00;0.00;;;;;-4.72;69.70;101533.97;5095272;28;8826;-58
2024/01/09 01:58:12;;;;;;;;;0.00;0.00;;;;;-4.71;69.64;101533.13;5095666;28;8845;-57
2024/01/09 02:00:40;;;;;;;;;1.00;1.00;;;;;-4.72;69.52;101536.56;5095802;28;8861;-57
2024/01/09 02:03:08;;;;;;;;;2.20;2.20;;;;;-4.72;70.04;101528.78;5095803;28;8911;-56
2024/01/09 02:05:35;;;;;;;;;2.20;1.80;;;;;-4.74;69.56;101535.72;5094516;28;8848;-57
2024/01/09 02:08:04;;;;;;;;;0.60;0.60;;;;;-4.72;69.62;101533.13;5095102;28;9550;-56
2024/01/09 02:10:31;;;;;;;;;1.00;1.00;;;;;-4.73;69.68;101534.84;5094750;28;8822;-58
2024/01/09 02:13:00;;;;;;;;;1.00;1.00;;;;;-4.74;69.78;101533.09;5095533;28;8830;-59
2024/01/09 02:15:28;;;;;;;;;1.00;1.00;;;;;-4.75;69.53;101541.75;5095046;28;8849;-56
2024/01/09 02:17:55;;;;;;;;;1.00;1.00;;;;;-4.78;69.41;101544.31;5094603;28;8910;-57
2024/01/09 02:20:25;;;;;;;;;0.80;0.80;;;;;-4.80;69.66;101527.88;5094693;28;8822;-57
2024/01/09 02:22:52;;;;;;;;;0.00;0.00;;;;;-4.82;69.41;101533.91;5095501;28;8883;-58
2024/01/09 02:25:20;;;;;;;;;0.00;0.00;;;;;-4.81;69.61;101528.72;5095137;28;9504;-58
2024/01/09 02:27:48;;;;;;;;;0.20;0.20;;;;;-4.80;69.59;101532.22;5093927;28;8815;-58
2024/01/09 02:30:16;;;;;;;;;3.20;1.80;;;;;-4.78;69.69;101528.72;5095065;28;8850;-56
2024/01/09 02:32:44;;;;;;;;;0.60;0.60;;;;;-4.77;69.55;101527.03;5095257;28;8814;-59
2024/01/09 02:35:11;;;;;;;;;0.80;0.80;;;;;-4.79;69.74;101524.41;5094400;28;9704;-59
2024/01/09 02:37:40;;;;;;;;;1.00;0.80;;;;;-4.81;69.62;101525.25;5094553;28;8838;-56
2024/01/09 02:40:08;;;;;;;;;1.40;0.80;;;;;-4.82;69.81;101532.19;5096093;28;8826;-60
2024/01/09 02:42:35;;;;;;;;;0.60;0.60;;;;;-4.83;69.37;101516.59;5094166;28;8834;-58
2024/01/09 02:45:03;;;;;;;;;0.20;0.20;;;;;-4.83;69.57;101519.19;5094837;28;8803;-59
2024/01/09 02:47:31;;;;;;;;;1.00;1.00;;;;;-4.85;69.59;101519.19;5095221;28;8822;-59
2024/01/09 02:49:59;;;;;;;;;3.00;3.00;;;;;-4.85;69.65;101524.38;5095506;28;8825;-56
2024/01/09 02:52:27;;;;;;;;;1.20;0.00;;;;;-4.86;69.58;101527.81;5095653;28;8836;-58
2024/01/09 02:54:55;;;;;;;;;0.00;0.00;;;;;-4.85;69.84;101528.69;5095513;28;8841;-57
2024/01/09 02:57:23;;;;;;;;;1.00;1.00;;;;;-4.86;69.66;101524.38;5094669;28;8852;-58
2024/01/09 02:59:50;;;;;;;;;1.00;1.00;;;;;-4.88;69.84;101516.56;5094582;28;8822;-58
2024/01/09 03:02:18;;;;;;;;;4.00;3.00;;;;;-4.89;69.73;101525.19;5094474;28;8849;-59
2024/01/09 03:04:46;;;;;;;;;0.40;0.40;;;;;-4.87;69.68;101525.22;5094295;28;8907;-58
2024/01/09 03:07:14;;;;;;;;;0.60;0.60;;;;;-4.88;69.79;101521.75;5094399;28;8870;-60
2024/01/09 03:09:43;;;;;;;;;0.20;0.20;;;;;-4.90;69.90;101520.88;5094520;28;8850;-57
2024/01/09 03:12:11;;;;;;;;;0.40;0.40;;;;;-4.90;69.82;101520.88;5094440;28;8869;-59
2024/01/09 03:14:41;;;;;;;;;1.80;0.80;;;;;-4.93;69.76;101520.81;5094094;28;9001;-58
2024/01/09 03:17:09;;;;;;;;;0.00;0.00;;;;;-4.92;69.65;101522.59;5094694;28;8848;-58
2024/01/09 03:19:37;;;;;;;;;1.00;1.00;;;;;-4.92;69.81;101526.91;5094663;28;9495;-58
2024/01/09 03:22:04;;;;;;;;;2.60;2.60;;;;;-4.94;69.38;101521.69;5095548;28;8856;-58
2024/01/09 03:24:32;;;;;;;;;0.00;0.00;;;;;-4.96;69.88;101519.94;5088964;28;8818;-57
2024/01/09 03:27:00;;;;;;;;;1.80;1.80;;;;;-4.98;69.44;101517.34;5095540;28;8845;-58
2024/01/09 03:29:28;;;;;;;;;1.40;1.00;;;;;-4.98;69.93;101514.75;5095325;28;8838;-60
2024/01/09 03:31:55;;;;;;;;;0.00;0.00;;;;;-4.98;69.65;101525.13;5095685;28;8837;-58
2024/01/09 03:34:23;;;;;;;;;0.00;0.00;;;;;-4.95;69.91;101519.97;5095054;28;8846;-59
2024/01/09 03:36:51;;;;;;;;;2.60;2.60;;;;;-4.96;69.86;101513.03;5094203;28;9451;-60
2024/01/09 03:39:19;;;;;;;;;0.00;0.00;;;;;-4.94;69.96;101516.50;5095260;28;9488;-58
2024/01/09 03:41:47;;;;;;;;;1.00;1.00;;;;;-4.93;69.50;101512.19;5095521;28;8826;-58
2024/01/09 03:44:14;;;;;;;;;1.80;1.80;;;;;-4.93;69.92;101519.97;5095277;28;8911;-58
2024/01/09 03:46:42;;;;;;;;;1.00;1.00;;;;;-4.94;69.53;101520.84;5095458;28;8818;-60
2024/01/09 03:49:10;;;;;;;;;0.60;0.00;;;;;-4.95;70.23;101514.75;5095131;28;8818;-58
2024/01/09 03:51:38;;;;;;;;;0.60;0.60;;;;;-4.98;69.84;101514.75;5094229;28;8826;-60
2024/01/09 03:54:06;;;;;;;;;0.80;0.80;;;;;-5.00;70.10;101523.38;5096033;28;8842;-57
2024/01/09 03:56:34;;;;;;;;;0.00;0.00;;;;;-5.02;69.98;101523.34;5097439;28;8848;-58
2024/01/09 03:59:02;;;;;;;;;0.60;0.40;;;;;-5.05;70.09;101518.16;5097875;28;8822;-58
2024/01/09 04:01:29;;;;;;;;;0.80;0.00;;;;;-5.12;70.18;101518.97;5097888;28;8830;-59
2024/01/09 04:03:58;;;;;;;;;0.00;0.00;;;;;-5.11;70.06;101515.50;5097531;28;8811;-57
2024/01/09 04:06:26;;;;;;;;;0.60;0.60;;;;;-5.11;70.17;101515.50;5097992;28;8956;-57
2024/01/09 04:08:54;;;;;;;;;1.00;1.00;;;;;-5.13;69.88;101517.22;5096987;28;8814;-58
2024/01/09 04:11:22;;;;;;;;;0.00;0.00;;;;;-5.14;70.55;101507.72;5097719;28;8822;-58
2024/01/09 04:13:49;;;;;;;;;0.20;0.20;;;;;-5.14;70.24;101518.09;5097323;28;8818;-60
2024/01/09 04:16:18;;;;;;;;;1.00;0.60;;;;;-5.14;70.36;101506.81;5098097;28;8833;-60
2024/01/09 04:18:46;;;;;;;;;1.00;1.00;;;;;-5.13;70.17;101506.84;5098164;28;8853;-58
2024/01/09 04:21:14;;;;;;;;;1.00;1.00;;;;;-5.12;70.26;101505.97;5098513;28;8903;-58
2024/01/09 04:23:41;;;;;;;;;0.80;0.60;;;;;-5.12;70.18;101505.09;5098215;28;8802;-57
2024/01/09 04:26:09;;;;;;;;;0.00;0.00;;;;;-5.14;70.17;101505.09;5097105;28;8794;-58
2024/01/09 04:28:37;;;;;;;;;2.20;1.00;;;;;-5.16;70.28;101496.41;5097290;28;8841;-57
2024/01/09 04:31:05;;;;;;;;;0.80;0.40;;;;;-5.20;70.37;101489.47;5097646;28;9515;-58
2024/01/09 04:33:33;;;;;;;;;1.40;0.00;;;;;-5.18;69.89;101492.09;5097613;28;8827;-58
2024/01/09 04:36:01;;;;;;;;;1.00;0.60;;;;;-5.19;70.90;101486.03;5097924;28;8910;-58
2024/01/09 04:38:28;;;;;;;;;0.00;0.00;;;;;-5.21;70.44;101494.66;5098014;28;8814;-60
2024/01/09 04:40:56;;;;;;;;;0.80;0.80;;;;;-5.20;70.39;101496.38;5097919;28;8826;-58
2024/01/09 04:43:24;;;;;;;;;0.00;0.00;;;;;-5.20;70.40;101492.06;5097131;28;8860;-57
2024/01/09 04:45:52;;;;;;;;;0.60;0.60;;;;;-5.20;70.13;101494.66;5096463;28;8820;-58
2024/01/09 04:48:20;;;;;;;;;1.80;0.60;;;;;-5.21;70.25;101495.53;5096830;28;8852;-57
2024/01/09 04:50:47;;;;;;;;;2.20;1.80;;;;;-5.18;70.42;101495.53;5096572;28;8848;-58
2024/01/09 04:53:16;;;;;;;;;1.00;1.00;;;;;-5.21;70.58;101494.66;5096390;28;8923;-57
2024/01/09 04:55:43;;;;;;;;;0.60;0.40;;;;;-5.22;70.43;101485.13;5096232;28;8810;-57
2024/01/09 04:58:11;;;;;;;;;0.80;0.80;;;;;-5.24;70.64;101487.69;5097097;28;8822;-57
2024/01/09 05:00:39;;;;;;;;;0.20;0.20;;;;;-5.25;70.01;101491.16;5096909;28;8825;-58
2024/01/09 05:03:07;;;;;;;;;1.00;1.00;;;;;-5.24;70.96;101481.66;5096535;28;8856;-58
2024/01/09 05:05:35;;;;;;;;;0.60;0.60;;;;;-5.22;70.69;101483.41;5096133;28;8940;-57
2024/01/09 05:08:02;;;;;;;;;0.20;0.20;;;;;-5.23;70.52;101486.84;5096322;28;8833;-60
2024/01/09 05:10:31;;;;;;;;;1.00;1.00;;;;;-5.22;70.54;101483.41;5096952;28;9439;-57
2024/01/09 05:12:59;;;;;;;;;1.00;0.00;;;;;-5.20;70.47;101484.28;5097351;28;8814;-59
2024/01/09 05:15:26;;;;;;;;;1.80;1.40;;;;;-5.21;70.32;101485.16;5095614;28;8806;-59
2024/01/09 05:17:54;;;;;;;;;2.40;2.40;;;;;-5.20;70.54;101483.41;5096813;28;8829;-59
2024/01/09 05:20:22;;;;;;;;;2.60;1.00;;;;;-5.21;70.41;101487.75;5095701;28;8835;-58
2024/01/09 05:22:50;;;;;;;;;1.00;1.00;;;;;-5.20;70.68;101486.88;5095734;28;8814;-57
2024/01/09 05:25:18;;;;;;;;;1.00;1.00;;;;;-5.21;70.61;101487.75;5095244;28;8818;-60
2024/01/09 05:27:45;;;;;;;;;1.80;1.80;;;;;-5.21;70.57;101487.75;5095878;28;8830;-57
2024/01/09 05:30:13;;;;;;;;;3.00;2.60;;;;;-5.21;70.62;101482.56;5096008;28;8851;-58
2024/01/09 05:32:41;;;;;;;;;0.20;0.20;;;;;-5.21;70.60;101482.56;5096455;28;8926;-59
2024/01/09 05:35:09;;;;;;;;;1.00;1.00;;;;;-5.23;70.68;101492.03;5094335;28;8948;-57
2024/01/09 05:37:37;;;;;;;;;1.00;1.00;;;;;-5.23;70.62;101493.78;5095364;28;8819;-59
2024/01/09 05:40:04;;;;;;;;;1.00;1.00;;;;;-5.27;70.77;101489.41;5096333;28;8956;-59
2024/01/09 05:42:32;;;;;;;;;1.00;1.00;;;;;-5.29;70.95;101488.53;5096486;28;8837;-57
2024/01/09 05:45:00;;;;;;;;;1.80;1.80;;;;;-5.31;70.67;101493.69;5096248;28;8818;-57
2024/01/09 05:47:28;;;;;;;;;1.00;1.00;;;;;-5.32;70.93;101491.97;5096395;28;8952;-59
2024/01/09 05:49:55;;;;;;;;;3.20;3.00;;;;;-5.31;70.72;101495.44;5095574;28;8836;-60
2024/01/09 05:52:23;;;;;;;;;2.20;2.20;;;;;-5.34;71.25;101504.06;5095882;28;8836;-60
2024/01/09 05:54:51;;;;;;;;;2.60;2.20;;;;;-5.38;70.91;101507.47;5095176;28;8853;-59
2024/01/09 05:57:18;;;;;;;;;3.00;3.00;;;;;-5.38;70.94;101506.63;5095596;28;8956;-59
2024/01/09 05:59:46;;;;;;;;;0.80;0.80;;;;;-5.40;70.83;101505.75;5096155;28;8860;-58
2024/01/09 06:02:14;;;;;;;;;1.00;1.00;;;;;-5.44;70.45;101510.03;5095879;28;8818;-57
2024/01/09 06:04:41;;;;;;;;;0.00;0.00;;;;;-5.44;70.97;101515.22;5096759;28;8826;-58
2024/01/09 06:07:09;;;;;;;;;3.00;3.00;;;;;-5.46;70.98;101498.75;5094740;28;8817;-59
2024/01/09 06:09:38;;;;;;;;;3.20;3.20;;;;;-5.45;70.94;101510.00;5095432;28;9483;-59
2024/01/09 06:12:05;;;;;;;;;3.00;3.00;;;;;-5.46;71.02;101506.53;5094151;28;8842;-58
2024/01/09 06:14:33;;;;;;;;;0.00;0.00;;;;;-5.45;70.89;101507.41;5094824;28;8869;-59
2024/01/09 06:17:01;;;;;;;;;2.60;1.00;;;;;-5.47;71.18;101509.13;5093630;28;8852;-57
2024/01/09 06:19:29;;;;;;;;;3.00;3.00;;;;;-5.49;70.88;101506.50;5094621;28;8846;-58
2024/01/09 06:21:57;;;;;;;;;0.60;0.60;;;;;-5.51;71.36;101507.34;5094870;28;8926;-58
2024/01/09 06:24:25;;;;;;;;;0.00;0.00;;;;;-5.56;71.21;101504.72;5094682;28;8838;-59
2024/01/09 06:26:53;;;;;;;;;1.00;1.00;;;;;-5.58;71.23;101509.03;5094198;28;8857;-59
2024/01/09 06:29:21;;;;;;;;;0.00;0.00;;;;;-5.55;71.45;101506.44;5094631;28;8834;-57
2024/01/09 06:31:49;;;;;;;;;0.00;0.00;;;;;-5.54;71.27;101509.91;5094535;28;8834;-57
2024/01/09 06:34:16;;;;;;;;;2.60;2.60;;;;;-5.56;71.33;101517.69;5095167;28;8838;-59
2024/01/09 06:36:45;;;;;;;;;1.00;1.00;;;;;-5.56;71.14;101509.03;5094796;28;8826;-58
2024/01/09 06:39:13;;;;;;;;;0.00;0.00;;;;;-5.58;71.24;101506.44;5095056;28;8822;-57
2024/01/09 06:41:41;;;;;;;;;1.40;1.40;;;;;-5.61;71.41;101511.56;5094332;28;9010;-57
2024/01/09 06:44:09;;;;;;;;;0.80;0.80;;;;;-5.60;71.00;101507.25;5093689;28;8838;-59
2024/01/09 06:46:37;;;;;;;;;1.40;1.40;;;;;-5.58;71.59;101511.63;5093814;28;8830;-58
2024/01/09 06:49:05;;;;;;;;;2.60;2.60;;;;;-5.56;71.25;101519.41;5093591;28;8960;-60
2024/01/09 06:51:33;;;;;;;;;1.80;1.80;;;;;-5.57;71.34;101520.25;5092866;28;8836;-59
2024/01/09 06:54:02;;;;;;;;;1.00;1.00;;;;;-5.58;71.46;101519.41;5093944;28;8844;-60
2024/01/09 06:56:29;;;;;;;;;2.60;2.60;;;;;-5.59;71.35;101515.06;5092927;28;8850;-58
2024/01/09 06:58:57;;;;;;;;;0.80;0.80;;;;;-5.61;71.54;101514.16;5092631;28;8837;-57
2024/01/09 07:01:26;;;;;;;;;1.00;1.00;;;;;-5.63;71.61;101526.25;5092748;28;8899;-58
2024/01/09 07:03:54;;;;;;;;;3.00;3.00;;;;;-5.62;71.74;101517.59;5093563;28;8818;-56
2024/01/09 07:06:22;;;;;;;;;1.40;1.00;;;;;-5.64;71.04;101524.50;5094218;28;8822;-59
2024/01/09 07:08:50;;;;;;;;;0.00;0.00;;;;;-5.64;71.41;101519.31;5094203;28;8968;-60
2024/01/09 07:11:18;;;;;;;;;1.40;1.40;;;;;-5.64;71.74;101521.91;5093626;28;8845;-60
2024/01/09 07:13:46;;;;;;;;;2.60;1.00;;;;;-5.63;72.04;101531.44;5092920;28;8919;-57
2024/01/09 07:16:13;;;;;;;;;3.00;3.00;;;;;-5.65;71.26;101530.56;5092872;28;8856;-57
2024/01/09 07:18:41;;;;;;;;;1.80;1.80;;;;;-5.68;71.72;101534.84;5093912;28;8864;-57
2024/01/09 07:21:09;;;;;;;;;1.80;1.80;;;;;-5.70;71.34;101529.63;5094076;28;8830;-57
2024/01/09 07:23:37;;;;;;;;;0.80;0.80;;;;;-5.74;72.06;101526.97;5093911;28;8846;-60
2024/01/09 07:26:05;;;;;;;;;0.80;0.80;;;;;-5.76;71.89;101531.28;5093595;28;8849;-57
2024/01/09 07:28:32;;;;;;;;;1.00;1.00;;;;;-5.76;72.25;101534.75;5094230;28;9070;-59
2024/01/09 07:31:00;;;;;;;;;1.00;1.00;;;;;-5.76;71.77;101537.34;5096345;28;8814;-57
2024/01/09 07:33:28;;;;;;;;;3.00;3.00;;;;;-5.75;71.71;101539.09;5097152;28;8980;-58
2024/01/09 07:35:57;;;;;;;;;1.40;1.40;;;;;-5.76;71.83;101537.34;5096667;28;8821;-57
2024/01/09 07:38:25;;;;;;;;;2.20;2.20;;;;;-5.77;71.91;101542.53;5096830;28;9004;-57
2024/01/09 07:40:53;;;;;;;;;1.40;1.40;;;;;-5.75;72.33;101541.69;5096607;28;9500;-60
2024/01/09 07:43:26;;;;;;;;;3.40;3.40;;;;;-5.72;71.72;101540.81;5097972;28;8878;-60
2024/01/09 07:45:54;;;;;;;;;4.00;3.40;;;;;-5.71;71.95;101556.41;5097749;28;8984;-60
2024/01/09 07:48:22;;;;;;;;;3.20;3.20;;;;;-5.69;71.64;101553.84;5098356;28;8960;-60
2024/01/09 07:50:50;;;;;;;;;0.60;0.60;;;;;-5.66;71.71;101551.28;5097724;28;9805;-58
2024/01/09 07:53:18;;;;;;;;;0.80;0.80;;;;;-5.68;71.90;101551.25;5097246;28;8842;-60
2024/01/09 07:55:46;;;;;;;;;2.60;2.60;;;;;-5.69;71.73;101554.69;5097698;28;8963;-60
2024/01/09 07:58:14;;;;;;;;;1.00;1.00;;;;;-5.68;71.99;101556.44;5098673;28;8830;-60
2024/01/09 08:00:42;;;;;;;;;1.00;1.00;;;;;-5.67;72.43;101558.22;5098092;28;8822;-60
2024/01/09 08:03:10;;;;;;;;;0.80;0.80;;;;;-5.60;71.70;101561.72;5097596;28;8826;-60
2024/01/09 08:05:37;;;;;;;;;4.00;3.00;;;;;-5.55;71.71;101562.66;5097594;28;8833;-59
2024/01/09 08:08:06;;;;;;;;;3.00;3.00;;;;;-5.52;71.58;101566.16;5096513;28;8864;-60
2024/01/09 08:10:33;;;;;;;;;3.00;3.00;;;;;-5.48;71.80;101559.28;5095442;28;8833;-60
2024/01/09 08:13:01;;;;;;;;;1.00;1.00;;;;;-5.47;71.70;101567.06;5096341;28;8850;-59
2024/01/09 08:15:30;;;;;;;;;1.00;0.60;;;;;-5.44;71.43;101558.44;5096686;28;8919;-58
2024/01/09 08:17:57;;;;;;;;;3.00;3.00;;;;;-5.40;71.67;101565.41;5097260;28;8840;-60
2024/01/09 08:20:26;;;;;;;;;3.00;3.00;;;;;-5.39;71.41;101568.00;5097468;28;8834;-58
2024/01/09 08:22:53;;;;;;;;;2.20;2.20;;;;;-5.36;71.14;101568.06;5096998;28;8831;-58
2024/01/09 08:25:21;;;;;;;;;2.60;2.20;;;;;-5.33;71.51;101570.66;5096479;28;8842;-57
2024/01/09 08:27:49;;;;;;;;;3.40;2.20;;;;;-5.30;71.39;101556.84;5096442;28;8826;-60
2024/01/09 08:30:17;;;;;;;;;4.00;1.80;;;;;-5.24;71.47;101562.09;5096480;28;8895;-58
2024/01/09 08:32:45;;;;;;;;;2.20;2.20;;;;;-5.14;71.53;101561.31;5096538;28;9503;-59
2024/01/09 08:35:13;;;;;;;;;6.60;5.80;;;;;-5.00;71.58;101560.63;5095948;28;8830;-58
2024/01/09 08:37:41;;;;;;;;;3.00;2.60;;;;;-4.79;71.05;101557.31;5096757;28;8834;-57
2024/01/09 08:40:10;;;;;;;;;0.80;0.20;;;;;-4.60;71.18;101553.97;5095542;28;8842;-57
2024/01/09 08:42:38;;;;;;;;;1.00;1.00;;;;;-4.43;70.99;101562.78;5096846;28;8853;-58
2024/01/09 08:45:05;;;;;;;;;1.00;1.00;;;;;-4.37;70.53;101549.78;5096296;28;8968;-58
2024/01/09 08:47:33;;;;;;;;;1.00;1.00;;;;;-4.39;70.88;101568.00;5096840;28;8898;-59
2024/01/09 08:50:01;;;;;;;;;0.00;0.00;;;;;-4.42;70.83;101567.97;5097087;28;8991;-58
2024/01/09 08:52:29;;;;;;;;;1.80;1.80;;;;;-4.48;70.35;101565.31;5097212;28;9514;-59
2024/01/09 08:54:57;;;;;;;;;4.00;3.60;;;;;-4.50;70.96;101564.44;5096804;28;8826;-57
2024/01/09 08:57:24;;;;;;;;;3.60;3.60;;;;;-4.53;71.13;101559.25;5095864;28;8826;-57
2024/01/09 08:59:53;;;;;;;;;4.40;3.80;;;;;-4.52;70.72;101562.69;5096003;28;9514;-58
2024/01/09 09:02:25;;;;;;;;;0.40;0.40;;;;;-4.51;70.44;101562.72;5095834;28;8844;-60
2024/01/09 09:04:53;;;;;;;;;0.00;0.00;;;;;-4.50;70.48;101555.81;5095527;28;8830;-56
2024/01/09 09:07:21;;;;;;;;;1.00;1.00;;;;;-4.50;70.28;101556.66;5095210;28;9548;-59
2024/01/09 09:09:49;;;;;;;;;0.60;0.60;;;;;-4.45;70.38;101560.16;5095282;28;8822;-59
2024/01/09 09:12:17;;;;;;;;;0.80;0.00;;;;;-4.41;70.39;101563.66;5095106;28;8861;-60
2024/01/09 09:14:44;;;;;;;;;0.00;0.00;;;;;-4.39;70.10;101565.41;5096175;28;8854;-61
2024/01/09 09:17:14;;;;;;;;;1.00;1.00;;;;;-4.36;70.19;101560.22;5095655;28;8856;-60
2024/01/09 09:19:41;;;;;;;;;1.40;1.40;;;;;-4.33;69.85;101560.22;5095542;28;8838;-58
2024/01/09 09:22:11;;;;;;;;;2.60;1.00;;;;;-4.30;70.23;101555.06;5095091;28;8924;-59
2024/01/09 09:24:39;;;;;;;;;3.00;3.00;;;;;-4.26;69.88;101567.19;5095094;28;8826;-60
2024/01/09 09:27:07;;;;;;;;;2.60;2.60;;;;;-4.22;70.16;101560.28;5096198;28;8814;-59
2024/01/09 09:29:35;;;;;;;;;0.40;0.40;;;;;-4.15;69.79;101559.44;5096102;28;8810;-59
2024/01/09 09:32:05;;;;;;;;;3.00;3.00;;;;;-4.10;69.62;101563.81;5095880;28;9638;-57
2024/01/09 09:34:33;;;;;;;;;4.00;3.80;;;;;-4.05;69.81;101558.66;5095277;28;8822;-57
2024/01/09 09:37:01;;;;;;;;;1.00;1.00;;;;;-3.98;69.67;101560.44;5095362;28;8846;-57
2024/01/09 09:39:29;;;;;;;;;1.00;1.00;;;;;-3.90;69.61;101559.59;5095018;28;8830;-60
2024/01/09 09:41:57;;;;;;;;;1.40;1.00;;;;;-3.82;69.57;101563.97;5095943;28;8838;-58
2024/01/09 09:44:26;;;;;;;;;3.00;3.00;;;;;-3.72;69.09;101562.28;5096308;28;8876;-60
2024/01/09 09:46:54;;;;;;;;;3.60;3.00;;;;;-3.65;68.98;101562.28;5094614;28;8889;-60
2024/01/09 09:49:24;;;;;;;;;1.00;1.00;;;;;-3.57;69.29;101560.56;5095212;28;9543;-60
2024/01/09 09:51:52;;;;;;;;;1.40;1.40;;;;;-3.48;68.71;101563.19;5095232;28;8850;-58
2024/01/09 09:54:22;;;;;;;;;3.00;2.60;;;;;-3.41;68.36;101551.09;5094571;28;8830;-58
2024/01/09 09:56:51;;;;;;;;;3.20;2.20;;;;;-3.31;68.85;101555.44;5094754;28;9744;-58
2024/01/09 09:59:18;;;;;;;;;1.60;1.20;;;;;-3.22;68.45;101555.44;5094167;28;8845;-58
2024/01/09 10:01:47;;;;;;;;;3.00;1.00;;;;;-3.13;68.45;101556.34;5093979;28;8838;-59
2024/01/09 10:04:15;;;;;;;;;2.20;1.40;;;;;-3.05;68.15;101552.00;5093915;28;8848;-58
2024/01/09 10:06:43;;;;;;;;;1.00;1.00;;;;;-2.95;67.72;101552.88;5094196;28;9562;-57
2024/01/09 10:09:11;;;;;;;;;1.00;1.00;;;;;-2.82;67.68;101544.19;5093776;28;8856;-57
2024/01/09 10:11:39;;;;;;;;;3.00;3.00;;;;;-2.63;67.02;101551.13;5092513;28;8872;-58
2024/01/09 10:14:07;;;;;;;;;3.00;3.00;;;;;-2.37;66.37;101541.53;5093481;28;8860;-60
2024/01/09 10:16:34;;;;;;;;;1.00;1.00;;;;;-2.04;66.04;101544.06;5093245;28;8818;-58
2024/01/09 10:19:02;;;;;;;;;1.40;1.00;;;;;-1.66;64.90;101543.00;5093407;28;8857;-60
2024/01/09 10:21:30;;;;;;;;;5.60;4.80;;;;;-1.27;64.37;101528.88;5093576;28;8950;-58
2024/01/09 10:23:58;;;;;;;;;0.20;0.20;;;;;-0.86;63.60;101529.44;5094450;28;8848;-59
2024/01/09 10:26:26;;;;;;;;;1.40;1.40;;;;;-0.35;62.76;101524.59;5094389;28;9486;-58
2024/01/09 10:28:54;;;;;;;;;0.00;0.00;;;;;0.17;62.80;101520.50;5093573;28;8829;-57
2024/01/09 10:31:22;;;;;;;;;1.00;1.00;;;;;0.68;62.25;101511.97;5092647;28;9561;-60
2024/01/09 10:33:50;;;;;;;;;1.00;1.00;;;;;0.98;61.84;101504.47;5091101;28;8846;-59
2024/01/09 10:36:18;;;;;;;;;1.00;1.00;;;;;1.16;61.28;101504.16;5093580;28;9223;-58
2024/01/09 10:38:46;;;;;;;;;3.60;3.60;;;;;1.29;61.09;101503.06;5093163;28;8842;-59
2024/01/09 10:41:14;;;;;;;;;3.00;3.00;;;;;1.60;61.10;101495.53;5093575;28;8946;-59
2024/01/09 10:43:42;;;;;;;;;1.00;1.00;;;;;2.18;60.76;101496.97;5094916;28;8865;-58
2024/01/09 10:46:10;;;;;;;;;1.00;1.00;;;;;2.89;59.35;101483.06;5094955;28;8842;-59
2024/01/09 10:48:38;;;;;;;;;4.00;3.00;;;;;3.59;59.01;101479.53;5094836;28;8818;-59
2024/01/09 10:51:06;;;;;;;;;3.80;3.00;;;;;4.29;57.85;101480.16;5094014;28;8968;-59
2024/01/09 10:53:33;;;;;;;;;3.20;3.20;;;;;5.02;57.12;101466.41;5094826;28;8859;-60
2024/01/09 10:56:03;;;;;;;;;1.00;1.00;;;;;5.87;56.14;101463.44;5093982;28;8830;-59
2024/01/09 10:58:30;;;;;;;;;1.00;1.00;;;;;6.55;55.53;101455.53;5094264;28;9496;-59
2024/01/09 11:00:58;;;;;;;;;4.80;4.80;;;;;7.02;54.74;101444.78;5093276;28;8815;-60
2024/01/09 11:03:26;;;;;;;;;3.00;3.00;;;;;7.14;54.51;101446.06;5094990;28;8822;-60
2024/01/09 11:05:54;;;;;;;;;3.40;3.40;;;;;6.99;54.68;101444.06;5098000;28;8876;-58
2024/01/09 11:08:23;;;;;;;;;3.60;3.20;;;;;6.43;55.95;101445.44;5098056;28;9093;-60
2024/01/09 11:10:51;;;;;;;;;3.60;3.60;;;;;6.14;57.10;101453.63;5098003;28;8834;-58
2024/01/09 11:13:19;;;;;;;;;4.00;4.00;;;;;6.07;56.78;101447.69;5098005;28;8850;-60
2024/01/09 11:15:52;;;;;;;;;3.60;3.00;;;;;6.04;56.63;101442.53;5097639;28;8825;-58
2024/01/09 11:18:22;;;;;;;;;1.80;1.80;;;;;6.08;56.89;101441.47;5097862;28;8857;-60
2024/01/09 11:20:49;;;;;;;;;3.00;3.00;;;;;6.34;55.80;101438.72;5097557;28;8858;-59
2024/01/09 11:23:17;;;;;;;;;3.00;3.00;;;;;6.77;55.26;101419.38;5096784;28;8868;-58
2024/01/09 11:25:45;;;;;;;;;1.00;1.00;;;;;7.20;54.99;101414.03;5097476;28;8838;-60
2024/01/09 11:28:13;;;;;;;;;4.00;4.00;;;;;7.42;54.15;101418.31;5097372;28;8833;-58
2024/01/09 11:30:41;;;;;;;;;2.60;2.60;;;;;7.41;54.12;101406.00;5097752;28;8911;-58
2024/01/09 11:33:09;;;;;;;;;2.20;1.80;;;;;7.35;54.74;101413.38;5097739;28;8830;-59
2024/01/09 11:35:37;;;;;;;;;3.60;3.00;;;;;7.25;55.59;101409.38;5098169;28;8842;-57
2024/01/09 11:38:05;;;;;;;;;5.40;3.00;;;;;7.35;55.42;101400.13;5098389;28;8838;-58